Time;durP1;ratioP1;P1;durP2;ratioP2;P2;SDS_P1;SDS_P2;PMS_P1;PMS_P2;Temp;Humidity;BMP_temperature;BMP_pressure;BME280_temperature;BME280_humidity;BME280_pressure;Samples;Min_cycle;Max_cycle;Signal;HPM_P1;HPM_P2
2021/09/09 00:01:52;;;;;;;9.60;5.90;;;;;;;15.34;64.62;97189.09;114044;1203;40170;-82
2021/09/09 00:04:23;;;;;;;8.40;6.00;;;;;;;15.33;64.65;97193.91;113847;1207;82063;-81
2021/09/09 00:06:54;;;;;;;8.70;5.80;;;;;;;15.28;64.76;97185.52;114033;1201;58277;-81
2021/09/09 00:09:24;;;;;;;9.70;6.50;;;;;;;15.26;65.02;97186.89;114140;1201;44077;-81
2021/09/09 00:11:57;;;;;;;10.00;6.20;;;;;;;15.23;65.00;97189.09;114182;1198;41877;-81
2021/09/09 00:14:28;;;;;;;11.10;6.80;;;;;;;15.21;65.05;97186.93;114081;1201;72437;-83
2021/09/09 00:17:00;;;;;;;10.50;6.20;;;;;;;15.20;65.11;97189.55;114140;1203;35394;-83
2021/09/09 00:19:30;;;;;;;10.30;6.20;;;;;;;15.18;65.11;97189.91;114046;1203;35173;-81
2021/09/09 00:22:01;;;;;;;11.90;6.20;;;;;;;15.12;65.06;97189.75;114128;1203;37257;-82
2021/09/09 00:24:32;;;;;;;10.40;6.30;;;;;;;15.10;65.14;97190.26;114105;1201;78413;-82
2021/09/09 00:27:03;;;;;;;8.60;6.10;;;;;;;15.09;65.13;97187.98;114099;1208;32895;-82
2021/09/09 00:29:34;;;;;;;9.10;6.20;;;;;;;15.07;65.16;97187.11;114136;1202;34065;-82
2021/09/09 00:32:06;;;;;;;10.80;6.00;;;;;;;15.07;65.16;97189.36;114018;1202;35675;-82
2021/09/09 00:34:36;;;;;;;9.40;6.20;;;;;;;15.08;65.13;97185.59;114083;1203;39187;-82
2021/09/09 00:37:07;;;;;;;8.20;5.50;;;;;;;15.07;65.14;97185.34;113881;1196;63953;-82
2021/09/09 00:39:38;;;;;;;8.70;6.30;;;;;;;15.08;65.12;97180.95;113748;1202;91356;-82
2021/09/09 00:42:09;;;;;;;10.60;6.20;;;;;;;15.12;65.05;97185.15;113980;1198;36973;-81
2021/09/09 00:44:40;;;;;;;9.70;6.40;;;;;;;15.10;65.07;97186.36;114104;1201;63523;-81
2021/09/09 00:47:13;;;;;;;9.10;6.00;;;;;;;15.08;65.08;97186.08;114091;1202;35853;-82
2021/09/09 00:49:45;;;;;;;9.80;6.30;;;;;;;15.06;65.05;97186.31;114059;1203;44979;-82
2021/09/09 00:52:17;;;;;;;8.90;5.70;;;;;;;15.05;65.04;97185.05;113977;1201;45927;-82
2021/09/09 00:54:49;;;;;;;9.50;5.70;;;;;;;15.03;65.11;97186.45;114132;1201;38585;-82
2021/09/09 00:57:20;;;;;;;9.70;6.20;;;;;;;15.02;65.08;97183.92;114018;1202;38696;-82
2021/09/09 00:59:54;;;;;;;11.30;6.80;;;;;;;15.01;65.03;97182.77;114086;1201;36477;-82
2021/09/09 01:02:25;;;;;;;9.90;6.20;;;;;;;14.99;65.12;97185.32;114045;1208;78482;-82
2021/09/09 01:04:55;;;;;;;10.10;5.90;;;;;;;14.96;65.17;97184.02;114077;1202;38647;-82
2021/09/09 01:07:27;;;;;;;8.70;6.30;;;;;;;14.96;65.10;97184.89;114156;1202;38154;-82
2021/09/09 01:10:00;;;;;;;11.10;6.40;;;;;;;14.92;65.09;97183.92;113999;1203;85151;-82
2021/09/09 01:12:34;;;;;;;9.90;5.90;;;;;;;14.91;65.14;97185.38;114178;1201;34397;-82
2021/09/09 01:15:07;;;;;;;10.10;6.10;;;;;;;14.85;65.22;97182.12;113956;1202;96421;-82
2021/09/09 01:17:38;;;;;;;8.00;5.70;;;;;;;14.82;65.25;97184.63;114010;1195;36119;-82
2021/09/09 01:20:10;;;;;;;11.50;5.90;;;;;;;14.77;65.29;97184.55;114112;1202;33268;-82
2021/09/09 01:22:42;;;;;;;9.70;6.20;;;;;;;14.65;65.53;97185.63;114229;1190;47301;-81
2021/09/09 01:25:14;;;;;;;9.40;6.10;;;;;;;14.60;65.63;97181.85;114097;1202;34621;-83
2021/09/09 01:27:45;;;;;;;10.30;6.80;;;;;;;14.52;65.67;97180.95;114213;1201;33654;-83
2021/09/09 01:30:16;;;;;;;10.90;6.30;;;;;;;14.44;65.94;97180.15;114182;1208;34862;-82
2021/09/09 01:32:47;;;;;;;9.90;6.20;;;;;;;14.45;66.03;97182.34;114161;1202;50821;-82
2021/09/09 01:35:18;;;;;;;9.30;6.50;;;;;;;14.43;66.14;97180.48;114186;1203;41647;-82
2021/09/09 01:37:49;;;;;;;9.90;6.20;;;;;;;14.41;66.32;97182.11;114080;1206;34542;-82
2021/09/09 01:40:30;;;;;;;8.10;5.60;;;;;;;14.41;66.36;97183.55;114122;1201;44855;-82
2021/09/09 01:43:01;;;;;;;8.70;6.10;;;;;;;14.40;66.26;97182.98;114332;1201;39762;-82
2021/09/09 01:45:32;;;;;;;9.20;6.30;;;;;;;14.37;66.30;97183.88;114251;1200;37113;-82
2021/09/09 01:48:04;;;;;;;8.50;5.70;;;;;;;14.38;66.26;97182.00;114203;1201;36859;-83
2021/09/09 01:50:35;;;;;;;10.10;6.50;;;;;;;14.37;66.40;97185.64;114187;1202;37408;-83
2021/09/09 01:53:06;;;;;;;12.10;6.90;;;;;;;14.35;66.35;97185.13;114174;1201;36259;-82
2021/09/09 01:55:37;;;;;;;8.90;6.80;;;;;;;14.22;66.50;97184.11;114171;1201;34168;-83
2021/09/09 01:58:08;;;;;;;8.30;5.40;;;;;;;14.15;66.79;97179.63;114151;1201;40433;-83
2021/09/09 02:00:39;;;;;;;10.60;6.00;;;;;;;14.15;66.79;97181.75;114142;1202;34377;-82
2021/09/09 02:03:10;;;;;;;10.60;6.40;;;;;;;14.15;66.78;97184.42;114250;1201;34587;-82
2021/09/09 02:05:41;;;;;;;10.50;5.90;;;;;;;14.10;66.99;97187.55;114150;1203;45095;-82
2021/09/09 02:08:12;;;;;;;11.10;7.00;;;;;;;14.10;67.11;97185.09;114044;1198;102141;-82
2021/09/09 02:10:43;;;;;;;9.40;6.10;;;;;;;14.09;67.15;97183.77;114022;1201;70380;-83
2021/09/09 02:13:15;;;;;;;9.80;6.10;;;;;;;14.07;67.14;97186.51;114097;1201;39070;-83
2021/09/09 02:15:46;;;;;;;9.80;6.10;;;;;;;14.05;67.22;97182.20;114124;1202;37216;-83
2021/09/09 02:18:17;;;;;;;7.80;5.90;;;;;;;14.03;67.18;97187.40;114116;1200;32931;-82
2021/09/09 02:20:48;;;;;;;7.90;5.90;;;;;;;14.07;67.22;97182.08;114151;1202;39725;-82
2021/09/09 02:23:19;;;;;;;10.00;6.60;;;;;;;14.07;67.24;97184.10;114144;1201;36812;-82
2021/09/09 02:25:50;;;;;;;8.80;5.90;;;;;;;14.05;67.26;97182.67;114228;1200;48436;-83
2021/09/09 02:28:21;;;;;;;8.80;5.50;;;;;;;14.06;67.14;97183.52;114111;1201;77884;-82
2021/09/09 02:30:52;;;;;;;10.40;6.70;;;;;;;14.07;67.28;97178.88;114149;1203;47584;-82
2021/09/09 02:33:23;;;;;;;8.50;5.40;;;;;;;14.08;67.25;97179.04;114153;1201;33469;-82
2021/09/09 02:35:54;;;;;;;9.50;5.70;;;;;;;14.11;67.13;97175.52;114126;1201;38804;-82
2021/09/09 02:38:25;;;;;;;9.00;5.80;;;;;;;14.14;67.06;97177.98;114147;1206;36452;-82
2021/09/09 02:40:55;;;;;;;7.60;6.00;;;;;;;14.13;67.08;97174.85;114060;1201;103643;-82
2021/09/09 02:43:26;;;;;;;9.70;6.30;;;;;;;14.14;66.99;97174.63;114174;1200;44010;-82
2021/09/09 02:45:57;;;;;;;11.10;6.00;;;;;;;14.18;66.93;97173.65;114133;1201;35992;-82
2021/09/09 02:48:28;;;;;;;12.50;6.70;;;;;;;14.19;66.97;97173.10;114101;1202;35484;-82
2021/09/09 02:50:59;;;;;;;9.10;6.00;;;;;;;14.18;66.90;97172.65;114170;1206;34338;-82
2021/09/09 02:53:30;;;;;;;9.90;6.20;;;;;;;14.18;66.97;97172.20;114028;1201;61499;-82
2021/09/09 02:56:00;;;;;;;12.10;6.40;;;;;;;14.17;66.98;97172.50;113993;1203;33424;-82
2021/09/09 02:58:31;;;;;;;8.80;5.70;;;;;;;14.13;66.99;97169.47;114157;1202;40793;-82
2021/09/09 03:01:02;;;;;;;10.00;5.60;;;;;;;14.13;66.93;97171.39;114214;1200;37993;-82
2021/09/09 03:03:33;;;;;;;8.80;5.80;;;;;;;14.13;66.96;97166.17;114266;1202;37866;-82
2021/09/09 03:06:04;;;;;;;9.30;6.20;;;;;;;14.14;66.92;97164.17;114204;1197;76037;-83
2021/09/09 03:08:36;;;;;;;11.10;6.10;;;;;;;14.15;66.89;97164.91;114260;1201;33916;-83
2021/09/09 03:11:06;;;;;;;9.50;5.90;;;;;;;14.13;66.84;97160.56;114186;1201;67160;-81
2021/09/09 03:13:37;;;;;;;10.20;5.80;;;;;;;14.14;66.76;97163.33;114026;1201;72668;-81
2021/09/09 03:16:08;;;;;;;8.30;5.60;;;;;;;14.13;66.86;97163.50;113992;1202;37537;-81
2021/09/09 03:18:39;;;;;;;9.90;5.80;;;;;;;14.12;66.88;97162.02;114090;1203;34245;-81
2021/09/09 03:21:10;;;;;;;9.80;6.00;;;;;;;14.10;66.75;97166.48;114088;1203;36193;-82
2021/09/09 03:23:41;;;;;;;8.10;5.90;;;;;;;14.07;66.72;97162.45;114052;1206;36508;-81
2021/09/09 03:26:12;;;;;;;11.10;5.60;;;;;;;14.07;66.87;97164.10;114097;1202;36892;-82
2021/09/09 03:28:43;;;;;;;9.80;6.50;;;;;;;14.03;66.87;97162.39;114156;1196;37373;-82
2021/09/09 03:31:14;;;;;;;10.50;6.10;;;;;;;14.02;66.92;97164.70;114122;1201;41733;-83
2021/09/09 03:33:45;;;;;;;9.10;5.40;;;;;;;14.03;66.82;97166.88;114118;1200;36135;-82
2021/09/09 03:36:16;;;;;;;9.70;6.30;;;;;;;14.02;66.82;97167.26;114089;1202;79177;-82
2021/09/09 03:38:47;;;;;;;8.90;6.00;;;;;;;13.98;66.81;97165.56;114211;1201;33948;-83
2021/09/09 03:41:17;;;;;;;8.30;5.70;;;;;;;13.98;66.93;97166.36;114107;1202;45264;-83
2021/09/09 03:43:48;;;;;;;9.00;6.10;;;;;;;13.98;66.84;97167.48;114036;1201;34418;-82
2021/09/09 03:46:19;;;;;;;9.10;5.90;;;;;;;13.93;66.93;97165.63;114019;1202;52060;-83
2021/09/09 03:48:50;;;;;;;10.80;6.00;;;;;;;13.92;66.94;97165.83;114170;1204;43357;-82
2021/09/09 03:51:21;;;;;;;9.40;6.40;;;;;;;13.94;66.94;97163.33;114175;1201;36815;-82
2021/09/09 03:53:51;;;;;;;10.60;6.00;;;;;;;13.95;66.81;97163.63;114171;1201;37011;-83
2021/09/09 03:56:22;;;;;;;9.30;6.30;;;;;;;13.96;66.84;97162.60;114010;1201;40736;-83
2021/09/09 03:58:53;;;;;;;7.90;5.70;;;;;;;13.91;66.79;97159.83;114122;1201;37774;-82
2021/09/09 04:01:27;;;;;;;9.10;6.40;;;;;;;13.87;66.94;97162.17;114061;1201;42232;-83
2021/09/09 04:03:58;;;;;;;9.80;5.70;;;;;;;13.87;66.98;97165.95;114092;1203;37355;-83
2021/09/09 04:06:29;;;;;;;9.80;6.40;;;;;;;13.86;66.96;97162.23;114118;1201;39655;-83
2021/09/09 04:08:59;;;;;;;11.10;6.60;;;;;;;13.79;66.97;97163.50;114046;1202;40965;-83
2021/09/09 04:11:30;;;;;;;11.10;6.50;;;;;;;13.76;67.13;97160.77;114019;1195;40129;-83
2021/09/09 04:14:01;;;;;;;7.30;5.30;;;;;;;13.77;67.16;97165.17;114076;1201;37919;-83
2021/09/09 04:16:32;;;;;;;11.80;6.60;;;;;;;13.76;67.23;97167.73;114203;1203;38464;-82
2021/09/09 04:19:03;;;;;;;8.60;5.70;;;;;;;13.79;67.37;97168.39;114154;1203;38549;-83
2021/09/09 04:21:35;;;;;;;43.60;21.90;;;;;;;13.93;67.38;97168.23;114136;1198;55183;-82
2021/09/09 04:24:06;;;;;;;44.90;20.90;;;;;;;14.25;67.31;97170.20;114080;1202;40038;-82
2021/09/09 04:26:37;;;;;;;17.00;10.50;;;;;;;14.65;66.95;97174.26;113922;1203;39403;-81
2021/09/09 04:29:08;;;;;;;15.00;10.10;;;;;;;15.07;66.37;97173.91;114029;1208;36717;-81
2021/09/09 04:31:39;;;;;;;10.30;6.60;;;;;;;15.48;65.81;97173.09;114085;1203;36802;-81
2021/09/09 04:34:10;;;;;;;9.20;6.00;;;;;;;15.86;65.23;97164.79;114041;1197;47188;-82
2021/09/09 04:36:41;;;;;;;9.50;6.40;;;;;;;16.22;64.60;97168.27;114100;1204;38686;-82
2021/09/09 04:39:12;;;;;;;7.90;5.60;;;;;;;16.69;64.12;97166.42;114019;1209;46323;-82
2021/09/09 04:41:43;;;;;;;9.50;6.50;;;;;;;17.15;62.78;97168.61;114010;1203;74046;-81
2021/09/09 04:44:14;;;;;;;9.60;6.70;;;;;;;17.43;61.64;97168.19;113860;1202;33786;-82
2021/09/09 04:46:45;;;;;;;8.80;6.30;;;;;;;17.58;60.65;97164.91;114068;1202;38741;-82
2021/09/09 04:49:16;;;;;;;8.70;5.30;;;;;;;17.82;60.83;97164.80;113947;1202;69916;-82
2021/09/09 04:51:47;;;;;;;8.70;5.80;;;;;;;18.51;60.69;97165.76;114116;1202;38702;-82
2021/09/09 04:54:19;;;;;;;9.30;5.40;;;;;;;19.25;59.85;97164.45;114019;1201;38177;-82
2021/09/09 04:56:50;;;;;;;7.10;5.20;;;;;;;19.93;58.41;97163.95;113920;1204;83957;-81
2021/09/09 04:59:21;;;;;;;7.80;5.80;;;;;;;20.46;57.41;97164.67;114053;1197;36161;-83
2021/09/09 05:01:53;;;;;;;7.70;5.20;;;;;;;20.89;56.10;97161.39;114055;1208;38887;-82
2021/09/09 05:04:24;;;;;;;7.00;5.30;;;;;;;21.40;55.87;97159.11;114095;1203;36697;-82
2021/09/09 05:06:54;;;;;;;6.60;5.00;;;;;;;21.97;54.53;97159.80;114059;1206;37365;-83
2021/09/09 05:09:25;;;;;;;8.90;5.20;;;;;;;22.49;53.39;97157.05;113991;1202;38728;-82
2021/09/09 05:11:56;;;;;;;6.70;5.00;;;;;;;22.97;52.40;97157.51;114081;1203;42448;-82
2021/09/09 05:14:28;;;;;;;9.00;5.10;;;;;;;23.67;52.05;97157.71;114020;1204;40617;-82
2021/09/09 05:16:59;;;;;;;9.00;5.60;;;;;;;24.43;50.85;97161.72;114072;1203;40678;-83
2021/09/09 05:19:30;;;;;;;6.50;4.90;;;;;;;24.99;49.81;97156.59;114032;1208;40188;-82
2021/09/09 05:22:01;;;;;;;8.90;5.80;;;;;;;25.67;48.23;97153.41;114100;1202;59794;-82
2021/09/09 05:24:32;;;;;;;14.90;10.40;;;;;;;26.25;46.45;97153.23;114048;1202;37453;-82
2021/09/09 05:27:03;;;;;;;11.70;8.70;;;;;;;26.36;45.61;97150.13;113940;1203;85004;-83
2021/09/09 05:29:34;;;;;;;8.60;5.80;;;;;;;26.95;45.61;97147.38;114177;1201;34603;-82
2021/09/09 05:32:07;;;;;;;6.40;5.00;;;;;;;27.30;44.31;97147.30;114163;1204;32992;-82
2021/09/09 05:34:38;;;;;;;8.90;5.20;;;;;;;27.82;43.23;97146.07;113965;1201;36850;-82
2021/09/09 05:37:09;;;;;;;7.10;4.90;;;;;;;28.37;42.44;97146.30;114102;1202;36303;-82
2021/09/09 05:39:40;;;;;;;6.10;4.50;;;;;;;29.04;41.39;97149.64;114075;1203;36969;-82
2021/09/09 05:42:11;;;;;;;5.50;4.30;;;;;;;29.26;40.14;97142.75;113975;1209;34355;-82
2021/09/09 05:44:42;;;;;;;7.00;4.60;;;;;;;29.70;40.17;97140.95;114009;1202;45871;-83
2021/09/09 05:47:13;;;;;;;5.70;4.70;;;;;;;30.44;39.13;97141.10;114040;1202;35017;-84
2021/09/09 05:49:44;;;;;;;6.80;4.70;;;;;;;31.17;38.30;97139.48;114000;1203;57364;-84
2021/09/09 05:52:15;;;;;;;5.60;4.40;;;;;;;31.63;36.93;97139.81;113977;1201;61753;-88
2021/09/09 05:54:46;;;;;;;6.90;4.70;;;;;;;31.90;35.95;97136.71;114028;1202;57905;-86
2021/09/09 05:57:17;;;;;;;5.10;4.30;;;;;;;32.17;35.61;97137.17;113974;1203;86621;-88
2021/09/09 05:59:48;;;;;;;6.20;4.70;;;;;;;32.68;35.01;97140.08;114027;1203;49068;-88
2021/09/09 06:02:21;;;;;;;4.80;4.20;;;;;;;32.88;33.46;97139.31;114044;1203;47779;-88
2021/09/09 06:04:55;;;;;;;6.60;4.80;;;;;;;32.54;31.80;97134.83;113986;1201;54069;-88
2021/09/09 06:07:27;;;;;;;6.20;4.30;;;;;;;32.29;32.95;97134.78;114096;1203;39434;-91
2021/09/09 06:09:58;;;;;;;5.60;4.20;;;;;;;33.10;33.56;97133.96;114161;1203;28851;-92
2021/09/09 06:12:29;;;;;;;5.30;4.20;;;;;;;33.86;31.86;97135.21;114167;1202;31947;-88
2021/09/09 06:15:00;;;;;;;7.00;5.10;;;;;;;33.36;29.32;97134.61;114118;1202;37276;-90
2021/09/09 06:17:31;;;;;;;6.00;3.80;;;;;;;32.81;30.18;97140.08;113982;1204;105477;-88
2021/09/09 06:20:02;;;;;;;6.50;4.60;;;;;;;32.68;29.29;97132.56;114158;1201;42668;-87
2021/09/09 06:22:33;;;;;;;5.80;4.50;;;;;;;32.00;29.44;97131.20;114212;1201;43310;-88
2021/09/09 06:25:04;;;;;;;7.70;4.60;;;;;;;31.75;30.25;97135.42;114198;1200;57448;-88
2021/09/09 06:27:35;;;;;;;5.30;4.40;;;;;;;32.55;30.98;97135.98;114212;1202;35137;-89
2021/09/09 06:30:08;;;;;;;6.00;5.00;;;;;;;33.48;30.48;97139.09;114133;1198;68818;-89
2021/09/09 06:32:39;;;;;;;5.10;4.50;;;;;;;33.80;28.52;97132.63;114208;1201;40694;-89
2021/09/09 06:35:10;;;;;;;7.60;4.70;;;;;;;33.15;28.17;97131.09;114282;1200;33129;-89
2021/09/09 06:37:41;;;;;;;5.30;4.60;;;;;;;33.16;29.01;97136.81;114067;1202;54097;-89
2021/09/09 06:40:13;;;;;;;5.40;4.70;;;;;;;33.68;29.10;97136.05;114247;1202;39967;-89
2021/09/09 06:42:44;;;;;;;4.70;3.90;;;;;;;34.44;28.59;97134.88;114248;1202;42253;-89
2021/09/09 06:45:18;;;;;;;6.10;4.00;;;;;;;34.66;28.04;97132.73;114152;1197;55720;-88
2021/09/09 06:47:49;;;;;;;6.00;4.70;;;;;;;35.01;27.05;97138.57;114179;1201;40116;-89
2021/09/09 06:50:19;;;;;;;6.20;4.40;;;;;;;34.80;26.31;97133.48;114223;1203;52474;-89
2021/09/09 06:52:50;;;;;;;5.40;4.30;;;;;;;34.10;26.39;97130.54;114255;1201;44015;-86
2021/09/09 06:55:21;;;;;;;6.10;4.40;;;;;;;33.68;26.85;97132.58;114289;1201;81437;-88
2021/09/09 06:57:53;;;;;;;6.90;5.00;;;;;;;33.65;27.08;97133.04;114351;1207;35882;-89
2021/09/09 07:00:24;;;;;;;5.80;4.60;;;;;;;34.38;27.45;97130.27;114315;1201;65243;-88
2021/09/09 07:02:57;;;;;;;7.20;4.80;;;;;;;35.07;26.91;97128.98;114341;1208;33568;-90
2021/09/09 07:05:28;;;;;;;6.00;4.50;;;;;;;35.67;25.83;97130.78;114373;1201;25245;-90
2021/09/09 07:07:59;;;;;;;6.40;4.50;;;;;;;35.23;25.57;97133.73;114305;1200;27551;-90
2021/09/09 07:10:30;;;;;;;6.00;4.10;;;;;;;35.25;24.79;97127.63;114295;1202;29457;-90
2021/09/09 07:13:01;;;;;;;4.80;4.20;;;;;;;34.84;25.99;97131.73;114115;1202;28271;-88
2021/09/09 07:15:32;;;;;;;7.60;4.70;;;;;;;35.81;26.51;97136.32;114217;1201;28481;-89
2021/09/09 07:18:03;;;;;;;4.80;4.30;;;;;;;37.19;26.03;97136.92;114218;1204;65065;-89
2021/09/09 07:20:34;;;;;;;7.40;4.80;;;;;;;37.40;23.73;97136.59;114034;1204;39236;-83
2021/09/09 07:23:05;;;;;;;5.20;4.70;;;;;;;36.44;24.30;97139.77;114057;1201;43669;-82
2021/09/09 07:25:36;;;;;;;6.00;4.20;;;;;;;36.82;24.02;97134.93;114056;1201;37038;-83
2021/09/09 07:28:07;;;;;;;7.50;4.30;;;;;;;36.88;24.26;97135.24;114047;1201;31964;-83
2021/09/09 07:30:38;;;;;;;8.50;4.30;;;;;;;37.56;24.32;97136.42;114018;1207;174348;-84
2021/09/09 07:33:09;;;;;;;6.20;4.00;;;;;;;38.24;23.46;97140.60;114265;1206;38228;-83
2021/09/09 07:35:40;;;;;;;8.00;4.50;;;;;;;37.40;22.52;97138.00;114360;1201;35355;-84
2021/09/09 07:38:11;;;;;;;4.90;4.00;;;;;;;37.08;23.21;97140.72;114280;1201;41845;-83
2021/09/09 07:40:41;;;;;;;4.90;4.20;;;;;;;36.85;23.40;97137.77;114109;1202;83731;-84
2021/09/09 07:43:12;;;;;;;6.00;4.30;;;;;;;37.18;23.74;97142.71;114021;1202;55881;-82
2021/09/09 07:45:43;;;;;;;5.80;4.50;;;;;;;37.53;23.34;97140.47;114180;1201;41164;-82
2021/09/09 07:48:14;;;;;;;5.10;4.40;;;;;;;37.39;23.24;97144.54;114082;1204;42023;-82
2021/09/09 07:50:45;;;;;;;5.90;4.50;;;;;;;36.90;23.47;97136.59;114038;1201;46750;-83
2021/09/09 07:53:16;;;;;;;7.10;4.50;;;;;;;37.14;24.29;97137.47;114037;1206;42022;-83
2021/09/09 07:55:47;;;;;;;5.10;4.10;;;;;;;37.50;24.02;97139.30;114068;1206;35442;-83
2021/09/09 07:58:18;;;;;;;5.70;4.40;;;;;;;37.41;23.78;97131.76;114029;1201;40672;-82
2021/09/09 08:00:48;;;;;;;7.30;5.00;;;;;;;37.04;24.07;97136.42;114084;1206;84475;-83
2021/09/09 08:03:19;;;;;;;7.30;4.70;;;;;;;36.75;24.23;97130.55;114010;1200;47459;-82
2021/09/09 08:05:50;;;;;;;7.80;4.70;;;;;;;36.12;23.97;97129.32;114053;1208;35348;-82
2021/09/09 08:08:22;;;;;;;8.10;4.40;;;;;;;35.10;25.30;97128.11;114012;1201;36346;-82
2021/09/09 08:10:55;;;;;;;7.20;4.70;;;;;;;34.13;25.72;97129.93;114004;1203;46427;-83
2021/09/09 08:13:26;;;;;;;7.60;4.40;;;;;;;33.54;26.57;97133.98;114013;1204;37340;-83
2021/09/09 08:15:57;;;;;;;6.10;4.60;;;;;;;33.08;26.94;97130.39;114090;1201;40689;-83
2021/09/09 08:18:28;;;;;;;6.50;4.20;;;;;;;32.78;27.57;97129.36;114079;1206;40613;-83
2021/09/09 08:20:59;;;;;;;6.60;4.40;;;;;;;32.56;28.24;97129.16;114165;1202;37115;-83
2021/09/09 08:23:30;;;;;;;6.00;4.60;;;;;;;31.94;27.64;97127.27;114084;1204;77785;-83
2021/09/09 08:26:01;;;;;;;9.00;4.50;;;;;;;31.25;28.47;97128.55;114065;1201;60336;-83
2021/09/09 08:28:32;;;;;;;8.00;4.60;;;;;;;30.93;29.05;97122.16;114044;1207;39153;-82
2021/09/09 08:31:03;;;;;;;8.80;5.10;;;;;;;30.68;29.24;97125.80;114194;1202;39924;-83
2021/09/09 08:33:35;;;;;;;7.10;4.50;;;;;;;30.64;29.85;97124.02;114011;1206;40610;-83
2021/09/09 08:36:09;;;;;;;7.70;4.80;;;;;;;30.35;29.89;97128.54;114139;1201;37213;-83
2021/09/09 08:38:40;;;;;;;6.40;4.40;;;;;;;29.94;29.98;97121.48;114077;1198;46989;-83
2021/09/09 08:41:11;;;;;;;5.60;4.30;;;;;;;29.69;30.63;97120.18;114143;1200;39607;-83
2021/09/09 08:43:42;;;;;;;6.70;4.80;;;;;;;29.50;30.58;97121.50;114031;1205;112626;-82
2021/09/09 08:46:16;;;;;;;7.20;4.20;;;;;;;29.17;30.72;97123.08;114061;1202;37948;-82
2021/09/09 08:48:49;;;;;;;6.50;4.90;;;;;;;28.92;31.36;97119.73;114218;1205;38794;-84
2021/09/09 08:51:20;;;;;;;6.60;4.70;;;;;;;28.64;31.50;97118.77;114074;1203;47857;-83
2021/09/09 08:53:53;;;;;;;7.20;4.60;;;;;;;28.31;31.82;97117.27;114077;1202;62717;-82
2021/09/09 08:56:24;;;;;;;6.60;4.50;;;;;;;27.89;32.04;97115.05;114095;1207;51041;-82
2021/09/09 08:58:55;;;;;;;6.10;4.60;;;;;;;27.68;32.67;97115.05;114141;1202;35847;-83
2021/09/09 09:01:26;;;;;;;7.40;4.80;;;;;;;27.41;32.87;97108.81;114076;1201;43645;-83
2021/09/09 09:04:01;;;;;;;6.20;4.60;;;;;;;27.21;33.11;97110.91;114081;1202;42613;-83
2021/09/09 09:06:38;;;;;;;8.40;4.70;;;;;;;26.98;33.46;97105.98;114042;1208;83438;-83
2021/09/09 09:09:13;;;;;;;7.40;5.00;;;;;;;26.67;33.31;97106.56;113958;1201;36011;-83
2021/09/09 09:11:49;;;;;;;7.20;4.50;;;;;;;26.34;34.21;97107.23;114187;1201;88250;-83
2021/09/09 09:14:25;;;;;;;7.30;5.10;;;;;;;26.08;33.69;97103.75;113849;1201;78577;-83
2021/09/09 09:16:59;;;;;;;7.10;4.50;;;;;;;25.71;33.88;97101.03;113953;1208;38245;-83
2021/09/09 09:19:32;;;;;;;6.80;4.60;;;;;;;25.24;34.51;97100.95;113947;1206;70874;-82
2021/09/09 09:22:06;;;;;;;7.80;5.00;;;;;;;25.12;35.45;97096.25;114107;1201;33772;-83
2021/09/09 09:24:47;;;;;;;7.00;4.80;;;;;;;25.28;35.36;97096.98;114036;1207;38236;-83
2021/09/09 09:27:18;;;;;;;;;;;;;;;25.24;34.98;97093.89;114142;1207;41508;-82
2021/09/09 09:30:04;;;;;;;6.60;4.40;;;;;;;25.22;34.75;97094.10;114147;1201;42677;-83
2021/09/09 09:32:35;;;;;;;7.60;4.60;;;;;;;25.18;35.39;97092.23;114087;1202;78189;-83
2021/09/09 09:35:14;;;;;;;8.50;5.20;;;;;;;25.25;35.87;97093.12;114105;1208;36872;-83
2021/09/09 09:37:57;;;;;;;6.90;5.00;;;;;;;25.35;36.28;97093.38;114261;1206;34499;-83
2021/09/09 09:40:33;;;;;;;7.20;5.00;;;;;;;25.32;35.97;97088.54;114172;1202;36390;-83
2021/09/09 09:43:10;;;;;;;6.20;4.70;;;;;;;25.20;36.05;97090.20;114010;1202;39462;-83
2021/09/09 09:45:52;;;;;;;9.00;4.90;;;;;;;25.15;36.77;97089.46;114273;1205;33757;-83
2021/09/09 09:48:33;;;;;;;7.30;4.80;;;;;;;25.30;37.34;97088.02;114179;1202;38699;-83
2021/09/09 09:51:04;;;;;;;7.70;5.20;;;;;;;25.47;36.94;97089.25;114057;1202;86642;-83
2021/09/09 09:53:35;;;;;;;7.50;4.70;;;;;;;25.55;37.12;97086.57;114091;1203;48523;-83
2021/09/09 09:56:06;;;;;;;8.00;5.10;;;;;;;25.46;36.57;97088.13;113938;1201;102103;-82
2021/09/09 09:58:36;;;;;;;6.60;4.90;;;;;;;25.44;37.04;97084.13;114026;1201;38434;-83
2021/09/09 10:01:07;;;;;;;6.60;4.60;;;;;;;25.32;36.44;97089.45;114092;1201;49747;-83
2021/09/09 10:03:38;;;;;;;7.80;5.20;;;;;;;25.36;36.34;97082.48;114149;1201;41996;-83
2021/09/09 10:06:09;;;;;;;6.80;4.70;;;;;;;25.45;36.29;97079.42;114128;1206;42000;-83
2021/09/09 10:08:40;;;;;;;5.70;4.20;;;;;;;25.44;36.74;97077.16;114163;1198;51360;-83
2021/09/09 10:11:13;;;;;;;5.70;4.30;;;;;;;25.42;36.32;97071.94;114059;1202;37644;-83
2021/09/09 10:13:44;;;;;;;7.30;4.80;;;;;;;25.11;36.64;97072.73;114041;1208;88263;-83
2021/09/09 10:16:16;;;;;;;7.30;4.80;;;;;;;24.94;37.22;97069.54;114224;1201;59042;-83
2021/09/09 10:18:48;;;;;;;6.90;5.00;;;;;;;24.77;37.92;97066.29;114099;1205;34325;-82
2021/09/09 10:21:42;;;;;;;7.10;4.90;;;;;;;24.91;38.90;97068.80;114135;1208;36047;-83
2021/09/09 10:24:17;;;;;;;7.20;4.80;;;;;;;25.15;38.74;97064.42;114171;1206;36677;-83
2021/09/09 10:26:49;;;;;;;6.90;4.70;;;;;;;25.18;38.73;97064.16;114172;1202;35305;-83
2021/09/09 10:29:48;;;;;;;9.10;4.80;;;;;;;25.25;38.32;97069.48;114086;1201;36924;-83
2021/09/09 10:32:56;;;;;;;9.00;5.50;;;;;;;25.30;38.59;97063.90;113963;1201;36349;-83
2021/09/09 10:35:40;;;;;;;7.70;5.00;;;;;;;25.43;38.18;97061.08;113977;1203;38853;-83
2021/09/09 10:38:32;;;;;;;7.70;5.20;;;;;;;25.45;38.36;97059.73;114222;1201;39014;-83
2021/09/09 10:41:05;;;;;;;9.70;5.00;;;;;;;25.52;38.76;97059.15;114036;1206;39982;-83
2021/09/09 10:43:52;;;;;;;9.00;4.80;;;;;;;25.58;39.29;97056.12;114047;1203;41665;-83
2021/09/09 10:46:34;;;;;;;7.90;5.50;;;;;;;25.63;38.54;97054.58;114150;1195;39574;-83
2021/09/09 10:49:18;;;;;;;9.40;5.50;;;;;;;25.43;38.51;97053.41;114094;1205;41342;-83
2021/09/09 10:52:15;;;;;;;7.50;4.80;;;;;;;25.19;38.33;97052.86;114201;1201;39985;-83
2021/09/09 10:55:09;;;;;;;7.30;4.80;;;;;;;24.88;39.02;97047.04;114005;1201;75304;-83
2021/09/09 10:57:41;;;;;;;8.10;5.60;;;;;;;24.69;39.11;97041.48;114250;1206;56772;-83
2021/09/09 11:00:16;;;;;;;6.90;4.80;;;;;;;24.62;40.11;97041.21;114224;1201;34798;-83
2021/09/09 11:02:48;;;;;;;8.50;5.20;;;;;;;24.73;40.43;97038.79;114165;1198;45301;-83
2021/09/09 11:05:19;;;;;;;6.90;5.20;;;;;;;24.59;39.73;97039.85;114098;1206;38019;-84
2021/09/09 11:07:51;;;;;;;9.50;5.20;;;;;;;24.38;40.62;97038.36;114097;1205;35169;-84
2021/09/09 11:10:38;;;;;;;7.80;4.50;;;;;;;24.52;41.16;97038.16;114036;1207;99170;-82
2021/09/09 11:13:25;;;;;;;6.30;5.00;;;;;;;24.65;41.43;97034.60;114166;1201;49570;-83
2021/09/09 11:15:57;;;;;;;9.60;5.60;;;;;;;24.83;40.48;97033.07;114192;1202;39067;-84
2021/09/09 11:18:30;;;;;;;9.10;5.00;;;;;;;24.97;40.45;97033.25;114038;1201;105891;-85
2021/09/09 11:21:06;;;;;;;9.60;5.00;;;;;;;25.06;40.36;97030.86;114077;1208;40504;-84
2021/09/09 11:23:38;;;;;;;8.10;5.70;;;;;;;25.01;40.78;97026.20;114109;1202;36326;-85
2021/09/09 11:26:14;;;;;;;8.20;5.40;;;;;;;25.10;40.51;97026.14;114152;1203;37428;-86
2021/09/09 11:28:45;;;;;;;7.40;5.50;;;;;;;25.08;39.51;97019.52;114186;1202;44260;-86
2021/09/09 11:31:19;;;;;;;7.80;5.30;;;;;;;24.91;39.72;97018.25;114072;1202;36273;-86
2021/09/09 11:33:53;;;;;;;10.50;5.60;;;;;;;24.79;39.77;97015.73;114129;1202;48179;-84
2021/09/09 11:36:26;;;;;;;8.70;5.40;;;;;;;24.82;39.92;97013.98;114172;1201;38962;-84
2021/09/09 11:38:58;;;;;;;9.90;6.10;;;;;;;24.88;39.93;97012.39;114006;1208;39984;-82
2021/09/09 11:41:32;;;;;;;8.40;5.50;;;;;;;24.94;40.03;97009.10;114126;1202;38093;-86
2021/09/09 11:44:05;;;;;;;8.00;5.70;;;;;;;25.00;39.96;97009.11;114009;1202;36274;-88
2021/09/09 11:46:39;;;;;;;9.10;5.30;;;;;;;25.06;41.49;97007.71;114147;1201;75752;-87
2021/09/09 11:49:12;;;;;;;6.80;4.70;;;;;;;25.13;42.10;97004.78;114190;1200;37853;-89